createdAt,value
2022-08-12T00:00:10.374Z,14.10
2022-08-12T00:02:56.208Z,14.10
2022-08-12T00:05:57.120Z,14.10
2022-08-12T00:08:51.202Z,14.00
2022-08-12T00:11:37.546Z,14.00
2022-08-12T00:14:23.849Z,13.90
2022-08-12T00:17:09.732Z,13.80
2022-08-12T00:19:55.685Z,13.80
2022-08-12T00:22:42.484Z,13.70
2022-08-12T00:25:51.203Z,13.70
2022-08-12T00:28:35.608Z,13.60
2022-08-12T00:31:21.766Z,13.50
2022-08-12T00:34:07.777Z,13.50
2022-08-12T00:36:54.201Z,13.50
2022-08-12T00:39:41.149Z,13.50
2022-08-12T00:42:12.963Z,13.50
2022-08-12T00:44:42.491Z,13.40
2022-08-12T00:47:25.609Z,13.50
2022-08-12T00:49:55.726Z,13.50
2022-08-12T00:52:24.167Z,13.50
2022-08-12T00:55:00.638Z,13.50
2022-08-12T00:57:37.415Z,13.50
2022-08-12T01:00:12.379Z,13.50
2022-08-12T01:02:42.085Z,13.50
2022-08-12T01:05:30.633Z,13.40
2022-08-12T01:08:17.527Z,13.40
2022-08-12T01:11:05.443Z,13.40
2022-08-12T01:13:35.185Z,13.40
2022-08-12T01:16:05.674Z,13.40
2022-08-12T01:18:36.080Z,13.30
2022-08-12T01:21:28.124Z,13.20
2022-08-12T01:24:34.341Z,13.00
2022-08-12T01:27:07.687Z,13.00
2022-08-12T01:29:42.252Z,12.90
2022-08-12T01:32:12.977Z,12.90
2022-08-12T01:34:46.885Z,12.90
2022-08-12T01:37:20.558Z,12.90
2022-08-12T01:40:35.889Z,12.90
2022-08-12T01:42:47.012Z,12.80
2022-08-12T01:45:17.851Z,12.70
2022-08-12T01:48:05.135Z,12.80
2022-08-12T01:50:43.087Z,12.80
2022-08-12T01:53:13.520Z,12.90
2022-08-12T01:55:46.681Z,12.90
2022-08-12T01:59:02.226Z,12.90
2022-08-12T02:01:35.316Z,13.00
2022-08-12T02:04:45.170Z,13.00
2022-08-12T02:07:50.056Z,13.00
2022-08-12T02:10:52.201Z,13.00
2022-08-12T02:13:41.689Z,13.10
2022-08-12T02:16:46.756Z,13.10
2022-08-12T02:19:22.319Z,13.10
2022-08-12T02:22:15.017Z,13.10
2022-08-12T02:24:44.966Z,13.00
2022-08-12T02:27:14.807Z,13.00
2022-08-12T02:29:42.180Z,13.10
2022-08-12T02:32:10.285Z,13.10
2022-08-12T02:34:38.776Z,13.10
2022-08-12T02:37:10.894Z,13.10
2022-08-12T02:39:45.256Z,13.10
2022-08-12T02:42:15.213Z,13.10
2022-08-12T02:44:49.701Z,13.00
2022-08-12T02:47:58.468Z,13.10
2022-08-12T02:50:10.298Z,13.10
2022-08-12T02:52:39.558Z,13.10
2022-08-12T02:55:28.450Z,13.10
2022-08-12T02:58:06.833Z,13.10
2022-08-12T03:00:41.186Z,13.10
2022-08-12T03:03:13.048Z,13.20
2022-08-12T03:05:58.582Z,13.20
2022-08-12T03:08:32.921Z,13.20
2022-08-12T03:11:27.645Z,13.20
2022-08-12T03:14:00.625Z,13.20
2022-08-12T03:16:30.901Z,13.10
2022-08-12T03:19:01.065Z,13.10
2022-08-12T03:21:55.697Z,13.00
2022-08-12T03:24:18.946Z,13.00
2022-08-12T03:26:49.217Z,12.90
2022-08-12T03:29:17.910Z,12.90
2022-08-12T03:31:47.836Z,12.90
2022-08-12T03:34:23.889Z,12.90
2022-08-12T03:36:55.342Z,12.90
2022-08-12T03:39:38.192Z,13.00
2022-08-12T03:42:22.775Z,13.00
2022-08-12T03:45:15.516Z,13.10
2022-08-12T03:48:39.844Z,13.10
2022-08-12T03:51:26.828Z,13.20
2022-08-12T03:54:13.077Z,13.30
2022-08-12T03:56:59.601Z,13.40
2022-08-12T03:59:45.729Z,13.30
2022-08-12T04:02:17.084Z,13.20
2022-08-12T04:04:49.281Z,13.20
2022-08-12T04:07:17.350Z,13.30
2022-08-12T04:09:46.501Z,13.20
2022-08-12T04:12:33.315Z,13.20
2022-08-12T04:15:02.414Z,13.30
2022-08-12T04:17:30.914Z,13.30
2022-08-12T04:20:00.181Z,13.40
2022-08-12T04:22:31.265Z,13.40
2022-08-12T04:25:02.838Z,13.50
2022-08-12T04:27:32.256Z,13.50
2022-08-12T04:30:16.649Z,13.60
2022-08-12T04:32:54.052Z,13.70
2022-08-12T04:35:22.477Z,13.80
2022-08-12T04:38:00.330Z,13.90
2022-08-12T04:40:33.953Z,13.90
2022-08-12T04:43:01.979Z,14.00
2022-08-12T04:45:30.930Z,14.00
2022-08-12T04:47:58.675Z,14.20
2022-08-12T04:50:27.309Z,14.30
2022-08-12T04:53:08.851Z,14.40
2022-08-12T04:55:39.157Z,14.50
2022-08-12T04:58:09.655Z,14.50
2022-08-12T05:00:38.542Z,14.60
2022-08-12T05:03:07.066Z,14.70
2022-08-12T05:05:36.591Z,14.90
2022-08-12T05:08:08.709Z,15.10
2022-08-12T05:10:36.302Z,15.20
2022-08-12T05:13:11.718Z,15.30
2022-08-12T05:16:03.940Z,15.50
2022-08-12T05:18:29.104Z,15.70
2022-08-12T05:20:59.193Z,15.90
2022-08-12T05:23:27.259Z,16.00
2022-08-12T05:25:58.802Z,16.20
2022-08-12T05:28:27.755Z,16.30
2022-08-12T05:30:57.128Z,16.50
2022-08-12T05:33:33.503Z,16.60
2022-08-12T05:36:00.931Z,16.70
2022-08-12T05:38:47.105Z,16.90
2022-08-12T05:41:20.842Z,17.20
2022-08-12T05:43:51.140Z,17.50
2022-08-12T05:46:20.351Z,17.80
2022-08-12T05:48:49.869Z,18.00
2022-08-12T05:51:18.231Z,18.30
2022-08-12T05:53:46.046Z,18.50
2022-08-12T05:56:24.941Z,18.70
2022-08-12T05:58:53.289Z,18.90
2022-08-12T06:02:11.788Z,19.20
2022-08-12T06:04:09.998Z,19.30
2022-08-12T06:06:41.974Z,19.50
2022-08-12T06:09:13.536Z,19.60
2022-08-12T06:12:04.590Z,19.80
2022-08-12T06:14:29.516Z,20.00
2022-08-12T06:16:58.138Z,20.20
2022-08-12T06:20:25.896Z,20.40
2022-08-12T06:22:14.462Z,20.50
2022-08-12T06:24:41.870Z,20.70
2022-08-12T06:27:09.975Z,21.00
2022-08-12T06:30:10.178Z,21.10
2022-08-12T06:32:28.844Z,21.20
2022-08-12T06:35:25.527Z,21.50
2022-08-12T06:37:56.706Z,21.40
2022-08-12T06:40:43.806Z,21.60
2022-08-12T06:43:11.587Z,21.70
2022-08-12T06:45:45.239Z,22.00
2022-08-12T06:48:14.078Z,22.10
2022-08-12T06:50:42.683Z,22.10
2022-08-12T06:53:11.550Z,22.30
2022-08-12T06:55:58.013Z,22.60
2022-08-12T06:58:29.123Z,22.90
2022-08-12T07:00:59.956Z,23.00
2022-08-12T07:03:30.444Z,23.20
2022-08-12T07:06:07.024Z,23.30
2022-08-12T07:08:36.160Z,23.40
2022-08-12T07:11:06.774Z,23.70
2022-08-12T07:14:02.587Z,23.60
2022-08-12T07:16:49.684Z,23.90
2022-08-12T07:19:17.708Z,24.00
2022-08-12T07:22:00.354Z,24.10
2022-08-12T07:24:30.234Z,24.30
2022-08-12T07:26:57.543Z,24.40
2022-08-12T07:29:59.473Z,24.70
2022-08-12T07:32:16.400Z,24.80
2022-08-12T07:34:43.782Z,25.10
2022-08-12T07:37:11.209Z,25.10
2022-08-12T07:39:49.949Z,25.20
2022-08-12T07:42:18.810Z,25.10
2022-08-12T07:44:47.783Z,25.20
2022-08-12T07:47:19.227Z,25.10
2022-08-12T07:50:05.040Z,25.00
2022-08-12T07:52:43.199Z,25.20
2022-08-12T07:55:12.589Z,25.40
2022-08-12T07:58:09.306Z,25.30
2022-08-12T08:00:40.507Z,25.30
2022-08-12T08:03:09.237Z,25.60
2022-08-12T08:05:39.423Z,25.60
2022-08-12T08:08:15.258Z,26.00
2022-08-12T08:10:43.357Z,26.40
2022-08-12T08:13:12.912Z,26.80
2022-08-12T08:18:29.195Z,27.00
2022-08-12T08:20:57.304Z,27.30
2022-08-12T08:23:46.343Z,27.30
2022-08-12T08:26:15.784Z,27.40
2022-08-12T08:28:43.856Z,27.60
2022-08-12T08:31:14.517Z,27.60
2022-08-12T08:34:05.328Z,27.60
2022-08-12T08:36:29.715Z,27.60
2022-08-12T08:38:58.198Z,27.80
2022-08-12T08:42:14.242Z,28.20
2022-08-12T08:44:38.485Z,28.20
2022-08-12T08:47:11.305Z,28.40
2022-08-12T08:49:40.243Z,28.60
2022-08-12T08:52:09.446Z,28.90
2022-08-12T08:54:38.106Z,28.70
2022-08-12T08:57:08.430Z,28.90
2022-08-12T08:59:36.188Z,29.00
2022-08-12T09:02:07.642Z,29.10
2022-08-12T09:05:12.132Z,29.40
2022-08-12T09:07:51.957Z,29.40
2022-08-12T09:10:23.372Z,29.30
2022-08-12T09:13:23.637Z,29.30
2022-08-12T09:15:59.445Z,29.40
2022-08-12T09:18:33.155Z,29.80
2022-08-12T09:30:10.263Z,30.20
2022-08-12T09:32:31.412Z,29.90
2022-08-12T09:35:01.517Z,29.70
2022-08-12T09:37:57.761Z,29.60
2022-08-12T09:42:09.269Z,30.00
2022-08-12T09:43:26.249Z,30.30
2022-08-12T09:46:19.387Z,30.20
2022-08-12T09:48:44.845Z,30.10
2022-08-12T09:51:24.438Z,30.40
2022-08-12T09:54:30.459Z,30.50
2022-08-12T09:57:00.684Z,30.80
2022-08-12T10:00:15.922Z,30.90
2022-08-12T10:02:42.067Z,31.30
2022-08-12T10:05:13.689Z,31.70
2022-08-12T10:07:45.072Z,31.40
2022-08-12T10:10:22.665Z,31.40
2022-08-12T10:13:12.856Z,31.50
2022-08-12T10:16:02.480Z,31.60
2022-08-12T10:18:35.487Z,31.50
2022-08-12T10:21:10.180Z,31.60
2022-08-12T10:23:40.238Z,32.10
2022-08-12T10:26:37.309Z,32.70
2022-08-12T10:30:01.631Z,32.40
2022-08-12T10:32:44.605Z,31.70
2022-08-12T10:35:15.614Z,31.00
2022-08-12T10:38:35.547Z,30.80
2022-08-12T10:40:37.654Z,30.50
2022-08-12T10:43:23.834Z,30.40
2022-08-12T10:45:58.231Z,30.90
2022-08-12T10:48:33.990Z,31.50
2022-08-12T10:52:03.314Z,31.90
2022-08-12T10:54:00.442Z,32.20
2022-08-12T10:56:34.938Z,31.80
2022-08-12T10:59:11.081Z,31.20
2022-08-12T11:04:19.027Z,30.90
2022-08-12T11:04:45.515Z,30.30
2022-08-12T11:08:33.730Z,29.40
2022-08-12T11:10:06.343Z,29.30
2022-08-12T11:12:55.986Z,29.80
2022-08-12T11:15:33.355Z,30.10
2022-08-12T11:18:11.951Z,30.10
2022-08-12T11:20:49.092Z,30.60
2022-08-12T11:23:24.592Z,31.30
2022-08-12T11:26:06.774Z,31.80
2022-08-12T11:28:37.236Z,32.30
2022-08-12T11:31:11.893Z,32.80
2022-08-12T11:34:06.868Z,33.20
2022-08-12T11:36:29.018Z,33.10
2022-08-12T11:38:57.684Z,32.20
2022-08-12T11:41:31.053Z,31.70
2022-08-12T11:44:35.278Z,31.20
2022-08-12T11:46:52.810Z,31.20
2022-08-12T11:49:31.868Z,31.80
2022-08-12T11:52:04.255Z,31.90
2022-08-12T11:54:50.879Z,32.70
2022-08-12T11:58:40.658Z,33.50
2022-08-12T12:02:54.497Z,33.00
2022-08-12T12:05:22.131Z,32.50
2022-08-12T12:08:38.801Z,31.80
2022-08-12T12:10:43.288Z,31.10
2022-08-12T12:13:11.716Z,30.60
2022-08-12T12:15:51.055Z,30.10
2022-08-12T12:18:39.606Z,29.70
2022-08-12T12:21:08.460Z,29.50
2022-08-12T12:23:37.945Z,29.50
2022-08-12T12:26:08.038Z,29.50
2022-08-12T12:28:39.751Z,29.40
2022-08-12T12:31:14.523Z,29.40
2022-08-12T12:33:57.892Z,29.10
2022-08-12T12:36:30.095Z,28.90
2022-08-12T12:39:00.264Z,29.00
2022-08-12T12:42:41.596Z,29.20
2022-08-12T12:44:30.238Z,29.40
2022-08-12T12:47:04.062Z,29.60
2022-08-12T12:49:53.609Z,29.90
2022-08-12T12:52:21.467Z,29.90
2022-08-12T12:54:55.693Z,29.60
2022-08-12T12:57:36.216Z,29.50
2022-08-12T13:00:18.146Z,29.20
2022-08-12T13:02:55.823Z,28.90
2022-08-12T13:05:42.555Z,28.60
2022-08-12T13:08:28.387Z,28.50
2022-08-12T13:11:05.157Z,28.60
2022-08-12T13:14:07.993Z,28.80
2022-08-12T13:16:22.977Z,29.10
2022-08-12T13:18:52.249Z,29.40
2022-08-12T13:21:33.101Z,29.50
2022-08-12T13:24:09.533Z,29.40
2022-08-12T13:26:38.984Z,29.50
2022-08-12T13:29:06.599Z,29.60
2022-08-12T13:32:02.072Z,29.60
2022-08-12T13:34:34.332Z,29.30
2022-08-12T13:37:09.671Z,29.10
2022-08-12T13:39:39.715Z,29.10
2022-08-12T13:42:14.229Z,29.10
2022-08-12T13:44:42.772Z,29.10
2022-08-12T13:47:19.836Z,28.90
2022-08-12T13:49:55.466Z,28.90
2022-08-12T13:52:23.861Z,28.90
2022-08-12T13:54:56.059Z,28.90
2022-08-12T13:57:25.906Z,29.00
2022-08-12T14:00:00.309Z,29.20
2022-08-12T14:02:28.438Z,29.40
2022-08-12T14:04:57.069Z,29.30
2022-08-12T14:07:25.972Z,29.20
2022-08-12T14:10:16.374Z,29.10
2022-08-12T14:12:54.550Z,28.80
2022-08-12T14:15:36.431Z,28.40
2022-08-12T14:18:13.745Z,28.30
2022-08-12T14:20:47.523Z,28.10
2022-08-12T14:24:04.990Z,28.10
2022-08-12T14:26:11.648Z,27.90
2022-08-12T14:28:45.255Z,27.80
2022-08-12T14:31:31.321Z,27.80
2022-08-12T14:34:00.328Z,27.90
2022-08-12T14:36:33.103Z,28.00
2022-08-12T14:39:06.552Z,28.00
2022-08-12T14:41:36.544Z,27.90
2022-08-12T14:44:57.688Z,28.00
2022-08-12T14:47:07.496Z,28.10
2022-08-12T14:50:34.436Z,28.00
2022-08-12T14:52:55.484Z,28.00
2022-08-12T14:58:02.865Z,27.90
2022-08-12T15:00:52.213Z,27.80
2022-08-12T15:03:52.614Z,27.80
2022-08-12T15:06:43.509Z,27.90
2022-08-12T15:09:06.230Z,28.00
2022-08-12T15:11:54.332Z,28.10
2022-08-12T15:14:27.602Z,28.10
2022-08-12T15:17:00.557Z,28.00
2022-08-12T15:20:11.191Z,27.80
2022-08-12T15:22:38.734Z,27.70
2022-08-12T15:25:07.661Z,27.60
2022-08-12T15:28:04.732Z,27.50
2022-08-12T15:30:33.771Z,27.40
2022-08-12T15:33:12.394Z,27.40
2022-08-12T15:35:52.002Z,27.30
2022-08-12T15:38:27.737Z,27.30
2022-08-12T15:40:59.066Z,27.40
2022-08-12T15:44:16.458Z,27.30
2022-08-12T15:46:18.357Z,27.40
2022-08-12T15:48:54.368Z,27.40
2022-08-12T15:51:57.682Z,27.40
2022-08-12T15:54:34.994Z,27.30
2022-08-12T15:57:10.490Z,27.20
2022-08-12T15:59:59.961Z,27.20
2022-08-12T16:02:29.476Z,27.10
2022-08-12T16:04:57.694Z,27.10
2022-08-12T16:07:31.153Z,27.00
2022-08-12T16:10:08.293Z,27.00
2022-08-12T16:12:50.277Z,26.90
2022-08-12T16:15:24.988Z,27.00
2022-08-12T16:18:19.649Z,26.90
2022-08-12T16:20:46.547Z,26.90
2022-08-12T16:23:50.999Z,26.90
2022-08-12T16:26:15.300Z,26.90
2022-08-12T16:28:48.271Z,26.90
2022-08-12T16:31:23.217Z,26.80
2022-08-12T16:33:59.391Z,26.80
2022-08-12T16:36:30.577Z,26.80
2022-08-12T16:39:02.034Z,26.80
2022-08-12T16:41:37.940Z,26.80
2022-08-12T16:44:09.058Z,26.70
2022-08-12T16:46:37.741Z,26.70
2022-08-12T16:49:12.984Z,26.60
2022-08-12T16:51:46.729Z,26.60
2022-08-12T16:54:19.420Z,26.60
2022-08-12T16:56:55.422Z,26.50
2022-08-12T16:59:31.057Z,26.50
2022-08-12T17:02:18.076Z,26.40
2022-08-12T17:05:03.596Z,26.40
2022-08-12T17:07:36.235Z,26.40
2022-08-12T17:10:09.860Z,26.30
2022-08-12T17:12:39.727Z,26.30
2022-08-12T17:15:50.347Z,26.20
2022-08-12T17:18:15.399Z,26.20
2022-08-12T17:20:48.729Z,26.10
2022-08-12T17:23:19.617Z,26.10
2022-08-12T17:25:53.847Z,26.00
2022-08-12T17:28:23.056Z,25.90
2022-08-12T17:30:57.190Z,25.90
2022-08-12T17:33:34.164Z,25.80
2022-08-12T17:36:06.942Z,25.70
2022-08-12T17:38:38.266Z,25.60
2022-08-12T17:41:23.094Z,25.60
2022-08-12T17:43:58.854Z,25.50
2022-08-12T17:46:33.533Z,25.40
2022-08-12T17:49:06.792Z,25.30
2022-08-12T17:52:01.968Z,25.30
2022-08-12T17:54:31.448Z,25.20
2022-08-12T17:57:01.446Z,25.10
2022-08-12T17:59:48.741Z,25.00
2022-08-12T18:02:25.582Z,25.00
2022-08-12T18:05:05.815Z,24.80
2022-08-12T18:07:39.517Z,24.70
2022-08-12T18:10:07.359Z,24.60
2022-08-12T18:12:42.219Z,24.60
2022-08-12T18:15:47.764Z,24.50
2022-08-12T18:18:16.633Z,24.40
2022-08-12T18:20:45.160Z,24.30
2022-08-12T18:23:13.126Z,24.20
2022-08-12T18:26:14.085Z,24.10
2022-08-12T18:28:48.165Z,24.00
2022-08-12T18:31:18.288Z,23.90
2022-08-12T18:33:47.051Z,23.90
2022-08-12T18:36:22.076Z,23.80
2022-08-12T18:38:56.285Z,23.70
2022-08-12T18:41:36.112Z,23.60
2022-08-12T18:44:12.821Z,23.60
2022-08-12T18:46:53.868Z,23.50
2022-08-12T18:49:33.342Z,23.40
2022-08-12T18:52:07.848Z,23.30
2022-08-12T18:54:49.773Z,23.20
2022-08-12T18:58:07.543Z,23.10
2022-08-12T19:00:22.387Z,23.10
2022-08-12T19:02:52.111Z,23.00
2022-08-12T19:05:21.564Z,22.90
2022-08-12T19:08:00.795Z,22.80
2022-08-12T19:10:31.757Z,22.70
2022-08-12T19:13:23.898Z,22.70
2022-08-12T19:15:57.438Z,22.60
2022-08-12T19:18:31.304Z,22.50
2022-08-12T19:21:06.549Z,22.50
2022-08-12T19:23:40.474Z,22.40
2022-08-12T19:26:12.445Z,22.30
2022-08-12T19:28:42.735Z,22.30
2022-08-12T19:31:55.762Z,22.20
2022-08-12T19:38:03.869Z,22.00
2022-08-12T19:40:39.060Z,22.00
2022-08-12T19:43:20.676Z,21.90
2022-08-12T19:45:51.699Z,21.80
2022-08-12T19:48:27.537Z,21.70
2022-08-12T19:50:58.106Z,21.70
2022-08-12T19:53:29.403Z,21.70
2022-08-12T19:56:06.410Z,21.60
2022-08-12T19:58:37.195Z,21.60
2022-08-12T20:01:19.373Z,21.60
2022-08-12T20:03:59.997Z,21.50
2022-08-12T20:06:41.349Z,21.50
2022-08-12T20:09:14.887Z,21.40
2022-08-12T20:12:12.720Z,21.40
2022-08-12T20:14:40.955Z,21.40
2022-08-12T20:17:09.607Z,21.20
2022-08-12T20:20:01.436Z,21.10
2022-08-12T20:22:33.281Z,21.00
2022-08-12T20:25:07.352Z,20.90
2022-08-12T20:28:05.315Z,20.80
2022-08-12T20:30:37.335Z,20.70
2022-08-12T20:33:18.896Z,20.60
2022-08-12T20:36:13.182Z,20.60
2022-08-12T20:38:46.049Z,20.60
2022-08-12T20:41:17.516Z,20.40
2022-08-12T20:43:52.003Z,20.30
2022-08-12T20:46:21.577Z,20.20
2022-08-12T20:48:50.643Z,20.10
2022-08-12T20:51:23.022Z,20.10
2022-08-12T20:53:57.578Z,20.00
2022-08-12T20:56:37.841Z,20.00
2022-08-12T20:59:11.067Z,19.90
2022-08-12T21:01:47.623Z,19.90
2022-08-12T21:04:36.480Z,19.90
2022-08-12T21:07:09.101Z,19.90
2022-08-12T21:09:48.921Z,19.90
2022-08-12T21:12:28.001Z,19.80
2022-08-12T21:15:23.677Z,19.80
2022-08-12T21:18:11.842Z,19.70
2022-08-12T21:20:55.666Z,19.60
2022-08-12T21:23:23.746Z,19.60
2022-08-12T21:25:56.474Z,19.60
2022-08-12T21:28:30.897Z,19.50
2022-08-12T21:32:35.269Z,19.50
2022-08-12T21:34:07.080Z,19.50
2022-08-12T21:36:39.911Z,19.40
2022-08-12T21:39:18.357Z,19.40
2022-08-12T21:41:51.117Z,19.30
2022-08-12T21:44:23.965Z,19.30
2022-08-12T21:47:19.657Z,19.30
2022-08-12T21:49:55.648Z,19.20
2022-08-12T21:52:48.713Z,19.20
2022-08-12T21:55:19.550Z,19.10
2022-08-12T21:57:54.660Z,19.10
2022-08-12T22:00:31.969Z,18.90
2022-08-12T22:04:02.336Z,18.70
2022-08-12T22:06:31.135Z,18.70
2022-08-12T22:09:17.087Z,18.60
2022-08-12T22:11:59.169Z,18.60
2022-08-12T22:14:30.466Z,18.60
2022-08-12T22:17:07.150Z,18.50
2022-08-12T22:19:40.630Z,18.50
2022-08-12T22:22:09.129Z,18.50
2022-08-12T22:24:40.073Z,18.50
2022-08-12T22:27:32.032Z,18.50
2022-08-12T22:30:19.844Z,18.40
2022-08-12T22:32:51.535Z,18.30
2022-08-12T22:35:55.783Z,18.20
2022-08-12T22:38:25.068Z,18.10
2022-08-12T22:41:01.989Z,18.10
2022-08-12T22:44:00.845Z,18.10
2022-08-12T22:46:33.874Z,18.00
2022-08-12T22:49:01.347Z,18.00
2022-08-12T22:51:38.205Z,18.00
2022-08-12T22:54:20.864Z,18.00
2022-08-12T22:57:03.224Z,17.90
2022-08-12T22:59:33.789Z,17.90
2022-08-12T23:02:28.788Z,17.90
2022-08-12T23:04:57.861Z,17.90
2022-08-12T23:07:25.892Z,17.80
2022-08-12T23:09:54.804Z,17.80
2022-08-12T23:12:46.791Z,17.80
2022-08-12T23:15:16.634Z,17.80
2022-08-12T23:17:46.715Z,17.80
2022-08-12T23:20:15.374Z,17.80
2022-08-12T23:23:02.643Z,17.70
2022-08-12T23:25:55.487Z,17.70
2022-08-12T23:28:40.036Z,17.70
2022-08-12T23:31:09.960Z,17.60
2022-08-12T23:34:00.157Z,17.60
2022-08-12T23:36:39.170Z,17.60
2022-08-12T23:40:14.608Z,17.50
2022-08-12T23:42:16.452Z,17.50
2022-08-12T23:44:47.526Z,17.50
2022-08-12T23:47:20.101Z,17.50
2022-08-12T23:49:57.513Z,17.40
2022-08-12T23:52:34.181Z,17.40
2022-08-12T23:55:23.732Z,17.40
2022-08-12T23:58:21.413Z,17.40
